Time;durP1;ratioP1;P1;durP2;ratioP2;P2;SDS_P1;SDS_P2;PMS_P1;PMS_P2;Temp;Humidity;BMP_temperature;BMP_pressure;BME280_temperature;BME280_humidity;BME280_pressure;Samples;Min_cycle;Max_cycle;Signal;HPM_P1;HPM_P2
2023/08/22 00:00:52;;;;;;;11.55;8.98;;;;;;;;;;5073214;28;20036;-76
2023/08/22 00:03:18;;;;;;;9.57;8.18;;;;;;;;;;5071789;28;20024;-76
2023/08/22 00:05:43;;;;;;;10.25;8.18;;;;;;;;;;5054696;28;20040;-76
2023/08/22 00:08:09;;;;;;;11.02;8.93;;;;;;;;;;5071523;28;20035;-75
2023/08/22 00:10:34;;;;;;;12.43;9.18;;;;;;;;;;5072487;28;20024;-77
2023/08/22 00:13:03;;;;;;;12.07;8.80;;;;;;;;;;5072513;28;20031;-76
2023/08/22 00:15:29;;;;;;;11.85;9.00;;;;;;;;;;5072674;28;20086;-78
2023/08/22 00:17:55;;;;;;;11.07;8.25;;;;;;;;;;5072610;28;20032;-76
2023/08/22 00:20:21;;;;;;;17.67;9.43;;;;;;;;;;5072651;28;20029;-77
2023/08/22 00:22:46;;;;;;;12.35;9.30;;;;;;;;;;5072182;28;20024;-76
2023/08/22 00:25:12;;;;;;;11.85;8.65;;;;;;;;;;5072101;28;20440;-77
2023/08/22 00:27:38;;;;;;;10.55;8.90;;;;;;;;;;5071032;28;20424;-77
2023/08/22 00:30:04;;;;;;;14.80;9.20;;;;;;;;;;5053821;28;20511;-75
2023/08/22 00:32:30;;;;;;;10.32;8.77;;;;;;;;;;5070490;28;20021;-76
2023/08/22 00:34:56;;;;;;;14.23;8.73;;;;;;;;;;5069628;28;20486;-76
2023/08/22 00:37:22;;;;;;;12.63;9.10;;;;;;;;;;5070940;28;20108;-76
2023/08/22 00:39:48;;;;;;;14.65;9.27;;;;;;;;;;5071150;28;20025;-76
2023/08/22 00:42:14;;;;;;;11.95;8.80;;;;;;;;;;5071025;28;20028;-77
2023/08/22 00:44:39;;;;;;;13.00;9.13;;;;;;;;;;5070516;28;20108;-77
2023/08/22 00:47:05;;;;;;;13.98;9.20;;;;;;;;;;5070346;28;20024;-77
2023/08/22 00:49:32;;;;;;;11.13;8.85;;;;;;;;;;5071225;28;20035;-75
2023/08/22 00:51:59;;;;;;;12.63;9.27;;;;;;;;;;5071791;28;20032;-77
2023/08/22 00:54:26;;;;;;;16.67;9.43;;;;;;;;;;5052652;28;20036;-77
2023/08/22 00:56:53;;;;;;;13.70;8.82;;;;;;;;;;5070301;28;20086;-76
2023/08/22 00:59:20;;;;;;;10.85;8.57;;;;;;;;;;5053333;28;20039;-76
2023/08/22 01:01:46;;;;;;;10.82;9.07;;;;;;;;;;5071199;28;20059;-77
2023/08/22 01:04:12;;;;;;;11.00;8.43;;;;;;;;;;5071547;28;20083;-76
2023/08/22 01:06:49;;;;;;;13.00;9.45;;;;;;;;;;5069959;28;20520;-78
2023/08/22 01:09:25;;;;;;;14.07;9.38;;;;;;;;;;5070220;28;20071;-77
2023/08/22 01:11:52;;;;;;;13.15;9.32;;;;;;;;;;5070055;28;20115;-77
2023/08/22 01:14:22;;;;;;;14.07;9.40;;;;;;;;;;5071764;28;20099;-76
2023/08/22 01:16:48;;;;;;;13.80;9.70;;;;;;;;;;5070245;28;20478;-76
2023/08/22 01:19:18;;;;;;;12.10;9.55;;;;;;;;;;5071351;28;20054;-78
2023/08/22 01:21:51;;;;;;;16.65;10.25;;;;;;;;;;5069918;28;20468;-77
2023/08/22 01:24:17;;;;;;;16.15;9.25;;;;;;;;;;5053151;28;20025;-76
2023/08/22 01:26:44;;;;;;;11.85;9.00;;;;;;;;;;5071021;28;20036;-76
2023/08/22 01:29:14;;;;;;;11.85;9.30;;;;;;;;;;5069924;28;20388;-77
2023/08/22 01:31:56;;;;;;;12.65;9.38;;;;;;;;;;5071257;28;20032;-78
2023/08/22 01:34:29;;;;;;;15.80;9.68;;;;;;;;;;5070379;28;20110;-77
2023/08/22 01:36:56;;;;;;;14.88;9.55;;;;;;;;;;5071391;28;20085;-76
2023/08/22 01:39:24;;;;;;;10.18;8.48;;;;;;;;;;5071316;28;20081;-78
2023/08/22 01:41:50;;;;;;;17.17;9.90;;;;;;;;;;5069579;28;20060;-76
2023/08/22 01:44:16;;;;;;;20.95;12.98;;;;;;;;;;5053460;28;20067;-77
2023/08/22 01:46:42;;;;;;;18.90;13.75;;;;;;;;;;5070582;28;20028;-78
2023/08/22 01:49:07;;;;;;;16.02;12.63;;;;;;;;;;5069986;28;20540;-75
2023/08/22 01:51:33;;;;;;;17.92;13.93;;;;;;;;;;5071190;28;20498;-77
2023/08/22 01:53:59;;;;;;;16.92;12.77;;;;;;;;;;5071286;28;20040;-77
2023/08/22 01:56:27;;;;;;;15.48;13.13;;;;;;;;;;5069802;28;20139;-77
2023/08/22 01:58:52;;;;;;;19.33;12.68;;;;;;;;;;5070045;28;20063;-77
2023/08/22 02:01:19;;;;;;;17.55;12.55;;;;;;;;;;5070624;28;20056;-77
2023/08/22 02:03:46;;;;;;;15.88;12.70;;;;;;;;;;5070679;28;20028;-76
2023/08/22 02:06:11;;;;;;;14.73;11.68;;;;;;;;;;5070670;28;20078;-78
2023/08/22 02:08:39;;;;;;;16.20;12.05;;;;;;;;;;5069379;28;20032;-77
2023/08/22 02:11:04;;;;;;;15.25;11.43;;;;;;;;;;5052867;28;20032;-77
2023/08/22 02:13:30;;;;;;;14.95;11.05;;;;;;;;;;5069273;28;20078;-76
2023/08/22 02:15:56;;;;;;;19.23;10.93;;;;;;;;;;5068970;28;20020;-76
2023/08/22 02:18:21;;;;;;;17.50;11.05;;;;;;;;;;5070546;28;20042;-75
2023/08/22 02:20:51;;;;;;;14.60;11.02;;;;;;;;;;5069302;28;20032;-77
2023/08/22 02:23:17;;;;;;;17.95;10.38;;;;;;;;;;5069035;28;20454;-77
2023/08/22 02:25:43;;;;;;;12.88;9.82;;;;;;;;;;5069089;28;20123;-76
2023/08/22 02:28:08;;;;;;;13.13;10.40;;;;;;;;;;5070821;28;20111;-77
2023/08/22 02:30:34;;;;;;;14.77;10.13;;;;;;;;;;5069430;28;20040;-77
2023/08/22 02:33:01;;;;;;;11.65;9.63;;;;;;;;;;5069081;28;20020;-77
2023/08/22 02:35:26;;;;;;;14.32;9.98;;;;;;;;;;5070420;28;20017;-77
2023/08/22 02:37:52;;;;;;;11.95;9.52;;;;;;;;;;5068940;28;20495;-76
2023/08/22 02:40:17;;;;;;;12.63;10.00;;;;;;;;;;5070363;28;20024;-76
2023/08/22 02:42:46;;;;;;;13.18;9.32;;;;;;;;;;5069294;28;20033;-75
2023/08/22 02:45:11;;;;;;;18.33;9.95;;;;;;;;;;5068793;28;20075;-76
2023/08/22 02:47:37;;;;;;;12.65;10.25;;;;;;;;;;5070113;28;20045;-77
2023/08/22 02:50:04;;;;;;;14.45;10.68;;;;;;;;;;5070091;28;20027;-77
2023/08/22 02:52:30;;;;;;;16.00;10.93;;;;;;;;;;5070008;28;20021;-76
2023/08/22 02:54:55;;;;;;;16.17;9.90;;;;;;;;;;5069725;28;20036;-76
2023/08/22 02:57:21;;;;;;;14.63;10.02;;;;;;;;;;5070235;28;20086;-77
2023/08/22 02:59:46;;;;;;;12.50;9.75;;;;;;;;;;5072441;28;20052;-77
2023/08/22 03:02:12;;;;;;;12.75;9.30;;;;;;;;;;5072814;28;20021;-76
2023/08/22 03:04:37;;;;;;;16.75;10.00;;;;;;;;;;5074292;28;20423;-76
2023/08/22 03:07:04;;;;;;;17.83;10.32;;;;;;;;;;5073964;28;20511;-77
2023/08/22 03:09:30;;;;;;;17.67;10.07;;;;;;;;;;5072532;28;20028;-77
2023/08/22 03:11:56;;;;;;;14.85;9.93;;;;;;;;;;5073487;28;20113;-76
2023/08/22 03:14:21;;;;;;;16.05;10.13;;;;;;;;;;5072125;28;20127;-78
2023/08/22 03:16:47;;;;;;;13.90;9.95;;;;;;;;;;5074070;28;20016;-77
2023/08/22 03:19:14;;;;;;;18.10;10.07;;;;;;;;;;5073936;28;20361;-78
2023/08/22 03:21:39;;;;;;;13.15;10.25;;;;;;;;;;5072072;28;20148;-75
2023/08/22 03:24:05;;;;;;;15.75;10.07;;;;;;;;;;5073926;28;20493;-77
2023/08/22 03:26:30;;;;;;;18.13;11.15;;;;;;;;;;5073334;28;20056;-79
2023/08/22 03:28:56;;;;;;;16.10;10.70;;;;;;;;;;5071960;28;20032;-76
2023/08/22 03:31:27;;;;;;;17.77;10.95;;;;;;;;;;5073670;28;20145;-76
2023/08/22 03:33:53;;;;;;;14.30;9.80;;;;;;;;;;5072334;28;20033;-76
2023/08/22 03:36:20;;;;;;;13.63;10.07;;;;;;;;;;5064342;28;20039;-76
2023/08/22 03:38:48;;;;;;;16.95;9.90;;;;;;;;;;5073416;28;20059;-76
2023/08/22 03:41:13;;;;;;;13.40;10.13;;;;;;;;;;5072395;28;20115;-78
2023/08/22 03:43:40;;;;;;;12.15;9.77;;;;;;;;;;5072975;28;20099;-77
2023/08/22 03:46:05;;;;;;;17.10;11.07;;;;;;;;;;5073196;28;20111;-76
2023/08/22 03:48:31;;;;;;;14.93;10.57;;;;;;;;;;5071676;28;20123;-76
2023/08/22 03:50:56;;;;;;;16.15;10.93;;;;;;;;;;5073592;28;20117;-77
2023/08/22 03:53:22;;;;;;;15.25;10.48;;;;;;;;;;5072041;28;20020;-76
2023/08/22 03:55:48;;;;;;;16.05;10.35;;;;;;;;;;5073432;28;20115;-76
2023/08/22 03:58:14;;;;;;;13.95;9.93;;;;;;;;;;5071720;28;20473;-78
2023/08/22 04:00:39;;;;;;;15.88;10.70;;;;;;;;;;5071016;28;20036;-77
2023/08/22 04:03:05;;;;;;;17.27;9.93;;;;;;;;;;5071662;28;20115;-77
2023/08/22 04:05:30;;;;;;;13.95;10.05;;;;;;;;;;5071425;28;20119;-77
2023/08/22 04:07:56;;;;;;;15.35;10.55;;;;;;;;;;5073064;28;20027;-76
2023/08/22 04:10:23;;;;;;;13.88;10.30;;;;;;;;;;5071417;28;20035;-75
2023/08/22 04:12:48;;;;;;;17.48;10.35;;;;;;;;;;5072984;28;20534;-76
2023/08/22 04:15:16;;;;;;;29.70;23.40;;;;;;;;;;5072700;28;20025;-77
2023/08/22 04:17:42;;;;;;;23.23;11.63;;;;;;;;;;5071841;28;20035;-77
2023/08/22 04:20:12;;;;;;;14.73;10.07;;;;;;;;;;5071704;28;20029;-78
2023/08/22 04:22:40;;;;;;;14.20;10.68;;;;;;;;;;5072480;28;20028;-76
2023/08/22 04:25:06;;;;;;;18.20;11.30;;;;;;;;;;5072670;28;20029;-77
2023/08/22 04:27:34;;;;;;;14.38;11.02;;;;;;;;;;5071794;28;20419;-76
2023/08/22 04:30:00;;;;;;;14.20;10.82;;;;;;;;;;5071453;28;20032;-78
2023/08/22 04:32:25;;;;;;;15.75;10.57;;;;;;;;;;5071966;28;20035;-77
2023/08/22 04:34:52;;;;;;;17.10;10.75;;;;;;;;;;5073279;28;20324;-77
2023/08/22 04:37:18;;;;;;;17.95;10.85;;;;;;;;;;5070432;28;20132;-78
2023/08/22 04:39:43;;;;;;;16.83;10.77;;;;;;;;;;5054815;28;20042;-79
2023/08/22 04:42:09;;;;;;;16.02;10.55;;;;;;;;;;5071132;28;20562;-80
2023/08/22 04:44:34;;;;;;;16.13;10.43;;;;;;;;;;5072221;28;20025;-78
2023/08/22 04:47:00;;;;;;;17.05;11.10;;;;;;;;;;5072489;28;20031;-77
2023/08/22 04:49:25;;;;;;;13.93;10.77;;;;;;;;;;5072153;28;20028;-76
2023/08/22 04:51:51;;;;;;;19.58;10.65;;;;;;;;;;5072042;28;20099;-77
2023/08/22 04:54:18;;;;;;;20.48;11.02;;;;;;;;;;5070967;28;20024;-78
2023/08/22 04:56:43;;;;;;;19.30;13.27;;;;;;;;;;5053882;28;20071;-77
2023/08/22 04:59:09;;;;;;;15.45;11.60;;;;;;;;;;5071010;28;20511;-77
2023/08/22 05:01:34;;;;;;;14.13;10.80;;;;;;;;;;5072051;28;20031;-77
2023/08/22 05:04:00;;;;;;;12.77;10.77;;;;;;;;;;5071912;28;20499;-76
2023/08/22 05:06:26;;;;;;;18.58;10.55;;;;;;;;;;5072150;28;20395;-77
2023/08/22 05:08:51;;;;;;;16.65;10.43;;;;;;;;;;5062944;28;20431;-77
2023/08/22 05:11:17;;;;;;;17.10;10.80;;;;;;;;;;5032263;28;20274;-75
2023/08/22 05:13:42;;;;;;;21.00;11.15;;;;;;;;;;5049926;28;20031;-76
2023/08/22 05:16:08;;;;;;;15.70;10.75;;;;;;;;;;5046556;28;20096;-76
2023/08/22 05:18:33;;;;;;;15.20;11.25;;;;;;;;;;5050992;28;20487;-75
2023/08/22 05:20:59;;;;;;;22.70;11.88;;;;;;;;;;5048936;28;20027;-79
2023/08/22 05:23:25;;;;;;;19.00;12.20;;;;;;;;;;5051026;28;20048;-76
2023/08/22 05:25:50;;;;;;;17.98;11.85;;;;;;;;;;5058203;28;20032;-76
2023/08/22 05:28:16;;;;;;;16.85;11.82;;;;;;;;;;5063549;28;20142;-77
2023/08/22 05:30:41;;;;;;;28.58;12.48;;;;;;;;;;5039706;28;20097;-77
2023/08/22 05:33:07;;;;;;;18.60;12.38;;;;;;;;;;5046867;28;20458;-77
2023/08/22 05:35:33;;;;;;;18.80;12.13;;;;;;;;;;5053643;28;20017;-77
2023/08/22 05:37:59;;;;;;;16.83;12.45;;;;;;;;;;5044846;28;20366;-78
2023/08/22 05:40:30;;;;;;;18.23;11.88;;;;;;;;;;5044787;28;20021;-77
2023/08/22 05:42:56;;;;;;;19.27;12.13;;;;;;;;;;5042359;28;20037;-79
2023/08/22 05:45:23;;;;;;;17.60;12.25;;;;;;;;;;5033113;28;20051;-75
2023/08/22 05:47:49;;;;;;;21.52;13.48;;;;;;;;;;5032065;28;20468;-77
2023/08/22 05:50:14;;;;;;;22.80;13.00;;;;;;;;;;5060678;28;20056;-76
2023/08/22 05:52:41;;;;;;;19.15;12.45;;;;;;;;;;5039938;28;20086;-77
2023/08/22 05:55:07;;;;;;;18.08;12.63;;;;;;;;;;5041602;28;20481;-78
2023/08/22 05:57:33;;;;;;;20.77;13.13;;;;;;;;;;5047857;28;20115;-76
2023/08/22 06:00:01;;;;;;;19.40;13.38;;;;;;;;;;5040686;28;20028;-78
2023/08/22 06:02:26;;;;;;;22.63;12.23;;;;;;;;;;5036273;28;20156;-78
2023/08/22 06:04:52;;;;;;;24.65;13.70;;;;;;;;;;5050523;28;20485;-78
2023/08/22 06:07:19;;;;;;;23.90;12.88;;;;;;;;;;5028257;28;20043;-78
2023/08/22 06:09:46;;;;;;;19.48;13.30;;;;;;;;;;5049256;28;20440;-75
2023/08/22 06:12:11;;;;;;;16.15;12.60;;;;;;;;;;5048869;28;20037;-79
2023/08/22 06:14:38;;;;;;;22.58;14.13;;;;;;;;;;5048164;28;20032;-77
2023/08/22 06:17:04;;;;;;;26.23;13.88;;;;;;;;;;5042520;28;20041;-77
2023/08/22 06:19:29;;;;;;;20.95;13.15;;;;;;;;;;5035547;28;20362;-77
2023/08/22 06:21:55;;;;;;;35.72;15.02;;;;;;;;;;5040845;28;20481;-78
2023/08/22 06:24:20;;;;;;;19.15;13.35;;;;;;;;;;5045987;28;20064;-77
2023/08/22 06:26:48;;;;;;;23.70;13.82;;;;;;;;;;5040737;28;20427;-77
2023/08/22 06:29:13;;;;;;;25.02;13.73;;;;;;;;;;5049979;28;20517;-75
2023/08/22 06:31:39;;;;;;;23.80;14.07;;;;;;;;;;5050994;28;20025;-78
2023/08/22 06:34:05;;;;;;;24.08;14.88;;;;;;;;;;5069964;28;20052;-79
2023/08/22 06:36:30;;;;;;;24.38;15.20;;;;;;;;;;5076253;28;20047;-77
2023/08/22 06:38:59;;;;;;;21.85;14.13;;;;;;;;;;5026575;28;20515;-79
2023/08/22 06:41:27;;;;;;;21.77;13.85;;;;;;;;;;5044358;28;20029;-77
2023/08/22 06:43:53;;;;;;;24.30;13.32;;;;;;;;;;5033609;28;20030;-78
2023/08/22 06:46:21;;;;;;;19.02;13.00;;;;;;;;;;5046507;28;20052;-81
2023/08/22 06:48:50;;;;;;;21.25;12.32;;;;;;;;;;5055052;28;20032;-79
2023/08/22 06:51:16;;;;;;;17.73;13.27;;;;;;;;;;5054998;28;20045;-79
2023/08/22 06:53:41;;;;;;;19.52;13.02;;;;;;;;;;5056276;28;20079;-79
2023/08/22 06:56:08;;;;;;;27.33;14.20;;;;;;;;;;5058717;28;20465;-81
2023/08/22 06:58:34;;;;;;;19.40;13.90;;;;;;;;;;5051133;28;20032;-79
2023/08/22 07:00:59;;;;;;;22.10;12.70;;;;;;;;;;5048370;28;20083;-77
2023/08/22 07:03:28;;;;;;;26.83;13.75;;;;;;;;;;5040659;28;20029;-78
2023/08/22 07:05:54;;;;;;;22.75;14.00;;;;;;;;;;5027026;28;20140;-79
2023/08/22 07:08:20;;;;;;;18.83;12.45;;;;;;;;;;5049349;28;20031;-79
2023/08/22 07:10:46;;;;;;;19.50;13.23;;;;;;;;;;5044556;28;20043;-77
2023/08/22 07:13:11;;;;;;;17.95;13.63;;;;;;;;;;5047220;28;20025;-78
2023/08/22 07:15:37;;;;;;;22.23;12.75;;;;;;;;;;5048132;28;20389;-77
2023/08/22 07:18:02;;;;;;;21.40;13.52;;;;;;;;;;5051269;28;20063;-78
2023/08/22 07:20:29;;;;;;;17.80;13.02;;;;;;;;;;5042174;28;20129;-78
2023/08/22 07:22:54;;;;;;;33.90;18.20;;;;;;;;;;5047081;28;20037;-77
2023/08/22 07:25:20;;;;;;;20.80;13.55;;;;;;;;;;5042213;28;20031;-77
2023/08/22 07:27:46;;;;;;;22.80;15.00;;;;;;;;;;5043885;28;20037;-76
2023/08/22 07:30:12;;;;;;;23.52;15.02;;;;;;;;;;5047351;28;20029;-79
2023/08/22 07:32:37;;;;;;;19.98;14.95;;;;;;;;;;5052364;28;20140;-81
2023/08/22 07:35:03;;;;;;;19.95;14.40;;;;;;;;;;5042107;28;20116;-80
2023/08/22 07:37:30;;;;;;;20.92;14.10;;;;;;;;;;5050929;28;20037;-77
2023/08/22 07:39:56;;;;;;;19.13;14.57;;;;;;;;;;5033925;28;20032;-79
2023/08/22 07:42:22;;;;;;;23.90;16.65;;;;;;;;;;5049368;28;20032;-77
2023/08/22 07:44:48;;;;;;;17.02;13.13;;;;;;;;;;5050709;28;20033;-78
2023/08/22 07:47:13;;;;;;;18.17;12.98;;;;;;;;;;5055788;28;20082;-78
2023/08/22 07:49:39;;;;;;;22.27;15.10;;;;;;;;;;5047312;28;20037;-80
2023/08/22 07:52:05;;;;;;;20.25;13.90;;;;;;;;;;5051885;28;20032;-78
2023/08/22 07:54:32;;;;;;;26.95;13.77;;;;;;;;;;5055272;28;20078;-80
2023/08/22 07:56:57;;;;;;;20.85;13.13;;;;;;;;;;5052430;28;20116;-78
2023/08/22 07:59:23;;;;;;;21.40;12.18;;;;;;;;;;5048922;28;20419;-79
2023/08/22 08:01:50;;;;;;;17.05;13.43;;;;;;;;;;5051455;28;20033;-78
2023/08/22 08:04:16;;;;;;;19.27;12.70;;;;;;;;;;5041344;28;20143;-78
2023/08/22 08:06:42;;;;;;;19.50;13.60;;;;;;;;;;5049552;28;20029;-79
2023/08/22 08:09:07;;;;;;;17.05;12.57;;;;;;;;;;5045958;28;20491;-79
2023/08/22 08:11:33;;;;;;;14.57;11.52;;;;;;;;;;5042493;28;20039;-82
2023/08/22 08:13:59;;;;;;;17.60;12.02;;;;;;;;;;5041338;28;20166;-82
2023/08/22 08:16:25;;;;;;;19.60;13.32;;;;;;;;;;5053726;28;20488;-78
2023/08/22 08:18:54;;;;;;;18.52;11.15;;;;;;;;;;5048860;28;20040;-80
2023/08/22 08:21:27;;;;;;;28.63;13.45;;;;;;;;;;5048886;28;20025;-79
2023/08/22 08:23:53;;;;;;;18.25;12.50;;;;;;;;;;5047776;28;20037;-80
2023/08/22 08:26:20;;;;;;;15.15;11.98;;;;;;;;;;5057018;28;20051;-79
2023/08/22 08:28:46;;;;;;;16.52;11.80;;;;;;;;;;5049985;28;20139;-77
2023/08/22 08:31:12;;;;;;;24.88;12.85;;;;;;;;;;5048049;28;20021;-76
2023/08/22 08:33:37;;;;;;;16.50;13.07;;;;;;;;;;5038923;28;20039;-79
2023/08/22 08:36:04;;;;;;;22.23;14.52;;;;;;;;;;5057361;28;20021;-79
2023/08/22 08:38:29;;;;;;;16.30;12.68;;;;;;;;;;5053367;28;20124;-77
2023/08/22 08:41:00;;;;;;;19.48;13.63;;;;;;;;;;5045220;28;20452;-79
2023/08/22 08:43:30;;;;;;;16.83;12.93;;;;;;;;;;5057878;28;20078;-79
2023/08/22 08:45:55;;;;;;;17.13;13.50;;;;;;;;;;5044285;28;20426;-79
2023/08/22 08:48:22;;;;;;;18.70;14.05;;;;;;;;;;5047795;28;20059;-79
2023/08/22 08:50:49;;;;;;;19.13;13.10;;;;;;;;;;5034422;28;20513;-80
2023/08/22 08:53:14;;;;;;;21.10;13.98;;;;;;;;;;5056477;28;20039;-80
2023/08/22 08:55:42;;;;;;;19.13;12.52;;;;;;;;;;5053114;28;20136;-77
2023/08/22 08:58:08;;;;;;;20.33;11.98;;;;;;;;;;5048518;28;20110;-79
2023/08/22 09:00:37;;;;;;;21.33;12.27;;;;;;;;;;5046625;28;20021;-79
2023/08/22 09:03:03;;;;;;;26.27;14.65;;;;;;;;;;5056468;28;20475;-78
2023/08/22 09:05:29;;;;;;;18.10;12.90;;;;;;;;;;5054267;28;20025;-79
2023/08/22 09:07:55;;;;;;;21.48;13.18;;;;;;;;;;5057592;28;20125;-80
2023/08/22 09:10:34;;;;;;;17.92;13.35;;;;;;;;;;5055041;28;20036;-78
2023/08/22 09:13:04;;;;;;;15.68;12.57;;;;;;;;;;5051805;28;20670;-77
2023/08/22 09:15:30;;;;;;;17.17;12.10;;;;;;;;;;5028295;28;20030;-79
2023/08/22 09:17:57;;;;;;;17.33;12.05;;;;;;;;;;5049400;28;20031;-78
2023/08/22 09:20:22;;;;;;;20.50;12.15;;;;;;;;;;5039490;28;20653;-80
2023/08/22 09:22:48;;;;;;;17.05;11.73;;;;;;;;;;5042934;28;20031;-80
2023/08/22 09:25:14;;;;;;;16.73;11.35;;;;;;;;;;5049639;28;20025;-79
2023/08/22 09:27:40;;;;;;;15.55;11.57;;;;;;;;;;5051154;28;20078;-79
2023/08/22 09:30:06;;;;;;;19.70;10.95;;;;;;;;;;5049734;28;20028;-81
2023/08/22 09:32:33;;;;;;;15.77;12.02;;;;;;;;;;5047439;28;20468;-79
2023/08/22 09:35:01;;;;;;;21.00;12.57;;;;;;;;;;5050549;28;20032;-81
2023/08/22 09:37:33;;;;;;;13.77;11.23;;;;;;;;;;5052387;28;20039;-81
2023/08/22 09:40:07;;;;;;;17.70;11.63;;;;;;;;;;5049290;28;20037;-79
2023/08/22 09:42:38;;;;;;;13.60;10.48;;;;;;;;;;5053250;28;20120;-81
2023/08/22 09:45:04;;;;;;;;;;;;;;;;;;5033726;28;20042;-78
2023/08/22 09:47:30;;;;;;;16.25;10.95;;;;;;;;;;5042618;28;19982;-78
2023/08/22 09:49:59;;;;;;;17.85;11.80;;;;;;;;;;5037660;28;20036;-75
2023/08/22 09:52:25;;;;;;;13.75;11.18;;;;;;;;;;5052328;28;20024;-78
2023/08/22 09:54:54;;;;;;;14.85;10.88;;;;;;;;;;5047805;28;20106;-78
2023/08/22 09:57:27;;;;;;;17.05;11.23;;;;;;;;;;5047087;28;20024;-78
2023/08/22 09:59:55;;;;;;;19.25;10.80;;;;;;;;;;5035383;28;20025;-82
2023/08/22 10:02:22;;;;;;;16.63;10.68;;;;;;;;;;5042037;28;20342;-78
2023/08/22 10:04:48;;;;;;;11.55;10.32;;;;;;;;;;5046979;28;20469;-79
2023/08/22 10:07:13;;;;;;;13.98;10.30;;;;;;;;;;5045157;28;20033;-80
2023/08/22 10:09:42;;;;;;;12.68;9.93;;;;;;;;;;5036201;28;20055;-81
2023/08/22 10:12:12;;;;;;;14.60;9.48;;;;;;;;;;5039152;28;20021;-79
2023/08/22 10:14:43;;;;;;;11.57;8.57;;;;;;;;;;5046836;28;20029;-78
2023/08/22 10:17:13;;;;;;;12.20;9.68;;;;;;;;;;5038606;28;20489;-79
2023/08/22 10:19:39;;;;;;;19.90;10.05;;;;;;;;;;5047495;28;20024;-81
2023/08/22 10:22:09;;;;;;;13.10;10.90;;;;;;;;;;5052431;28;20033;-80
2023/08/22 10:24:40;;;;;;;14.45;9.10;;;;;;;;;;5043131;28;20186;-79
2023/08/22 10:27:14;;;;;;;17.20;9.63;;;;;;;;;;5040117;28;20505;-82
2023/08/22 10:30:18;;;;;;;11.82;9.57;;;;;;;;;;5051349;28;20021;-82
2023/08/22 10:33:06;;;;;;;12.13;10.05;;;;;;;;;;5044135;28;20033;-81
2023/08/22 10:35:32;;;;;;;15.60;9.30;;;;;;;;;;5045459;28;20026;-84
2023/08/22 10:38:04;;;;;;;12.63;9.77;;;;;;;;;;5052381;28;20035;-81
2023/08/22 10:40:38;;;;;;;15.95;9.75;;;;;;;;;;5052021;28;20089;-79
2023/08/22 10:43:12;;;;;;;9.63;8.38;;;;;;;;;;5045998;28;20119;-79
2023/08/22 10:45:49;;;;;;;8.77;7.85;;;;;;;;;;5046738;28;20056;-82
2023/08/22 10:48:21;;;;;;;9.98;8.55;;;;;;;;;;5053644;28;20043;-83
2023/08/22 10:50:48;;;;;;;9.05;8.05;;;;;;;;;;5056369;28;20033;-79
2023/08/22 10:53:29;;;;;;;12.30;7.57;;;;;;;;;;5049716;28;20029;-81
2023/08/22 10:55:57;;;;;;;10.63;7.28;;;;;;;;;;5045203;28;20100;-81
2023/08/22 10:58:38;;;;;;;8.73;7.68;;;;;;;;;;5049183;28;20542;-82
2023/08/22 11:01:09;;;;;;;12.88;8.32;;;;;;;;;;5032326;28;20580;-84
2023/08/22 11:03:35;;;;;;;11.50;7.63;;;;;;;;;;5051252;28;20021;-79
2023/08/22 11:06:01;;;;;;;7.60;5.90;;;;;;;;;;5050680;28;20025;-79
2023/08/22 11:08:27;;;;;;;10.23;6.40;;;;;;;;;;5052258;28;20044;-81
2023/08/22 11:10:52;;;;;;;8.82;6.93;;;;;;;;;;5046278;28;20075;-81
2023/08/22 11:13:18;;;;;;;8.07;5.53;;;;;;;;;;5051792;28;20040;-79
2023/08/22 11:15:48;;;;;;;8.73;6.72;;;;;;;;;;5049768;28;20462;-79
2023/08/22 11:18:13;;;;;;;13.63;7.15;;;;;;;;;;5035603;28;20033;-79
2023/08/22 11:20:40;;;;;;;8.75;5.45;;;;;;;;;;5043259;28;20089;-78
2023/08/22 11:23:07;;;;;;;9.40;5.97;;;;;;;;;;5054099;28;20036;-79
2023/08/22 11:25:36;;;;;;;9.00;6.22;;;;;;;;;;5055944;28;20376;-83
2023/08/22 11:28:03;;;;;;;7.00;5.93;;;;;;;;;;5053133;28;20300;-82
2023/08/22 11:30:29;;;;;;;6.90;6.20;;;;;;;;;;5059290;28;20025;-79
2023/08/22 11:32:54;;;;;;;6.82;5.45;;;;;;;;;;5052866;28;20041;-79
2023/08/22 11:35:20;;;;;;;7.68;6.30;;;;;;;;;;5048896;28;20020;-79
2023/08/22 11:37:46;;;;;;;13.23;8.40;;;;;;;;;;5055013;28;20460;-78
2023/08/22 11:40:16;;;;;;;11.50;7.90;;;;;;;;;;5051963;28;20135;-81
2023/08/22 11:42:42;;;;;;;;;;;;;;;;;;5040413;28;20045;-78
2023/08/22 11:45:21;;;;;;;16.02;9.45;;;;;;;;;;5045986;28;19920;-82
2023/08/22 11:47:52;;;;;;;16.10;12.07;;;;;;;;;;5051847;28;20040;-77
2023/08/22 11:50:20;;;;;;;14.07;8.85;;;;;;;;;;5052267;28;20091;-80
2023/08/22 11:52:48;;;;;;;11.63;7.80;;;;;;;;;;5048942;28;20032;-80
2023/08/22 11:55:16;;;;;;;11.95;8.82;;;;;;;;;;5049461;28;20472;-81
2023/08/22 11:57:43;;;;;;;9.77;8.13;;;;;;;;;;5048443;28;20039;-79
2023/08/22 12:00:13;;;;;;;9.95;7.57;;;;;;;;;;5052378;28;20041;-82
2023/08/22 12:02:52;;;;;;;12.32;6.93;;;;;;;;;;5049731;28;20342;-77
2023/08/22 12:05:39;;;;;;;14.00;7.88;;;;;;;;;;5051665;28;20108;-81
2023/08/22 12:08:10;;;;;;;13.13;6.80;;;;;;;;;;5047766;28;20044;-80
2023/08/22 12:10:44;;;;;;;8.90;6.70;;;;;;;;;;5048217;28;20608;-82
2023/08/22 12:13:12;;;;;;;8.73;6.43;;;;;;;;;;5043565;28;20040;-79
2023/08/22 12:15:41;;;;;;;8.90;7.10;;;;;;;;;;5046563;28;20025;-80
2023/08/22 12:18:08;;;;;;;7.65;6.82;;;;;;;;;;5047762;28;20021;-79
2023/08/22 12:20:35;;;;;;;10.05;6.70;;;;;;;;;;5045036;28;20441;-80
2023/08/22 12:23:01;;;;;;;8.20;6.95;;;;;;;;;;5046830;28;20068;-79
2023/08/22 12:25:28;;;;;;;10.27;7.07;;;;;;;;;;5054056;28;20063;-85
2023/08/22 12:27:53;;;;;;;9.85;6.18;;;;;;;;;;5051091;28;20372;-81
2023/08/22 12:30:19;;;;;;;10.88;6.45;;;;;;;;;;5051023;28;20025;-81
2023/08/22 12:32:45;;;;;;;8.90;5.80;;;;;;;;;;5058007;28;20071;-80
2023/08/22 12:35:11;;;;;;;14.10;6.43;;;;;;;;;;5051691;28;20025;-81
2023/08/22 12:37:40;;;;;;;10.60;6.97;;;;;;;;;;5049229;28;20025;-78
2023/08/22 12:40:13;;;;;;;15.25;6.72;;;;;;;;;;5043401;28;20044;-84
2023/08/22 12:42:39;;;;;;;7.90;6.22;;;;;;;;;;5053569;28;20029;-78
2023/08/22 12:45:09;;;;;;;7.05;6.18;;;;;;;;;;5053393;28;20361;-78
2023/08/22 12:47:48;;;;;;;;;;;;;;;;;;;;;
2023/08/22 12:50:14;;;;;;;13.35;6.45;;;;;;;;;;5051941;28;20353;-80
2023/08/22 12:52:41;;;;;;;6.80;5.93;;;;;;;;;;5042299;28;20043;-80
2023/08/22 12:55:07;;;;;;;12.00;6.35;;;;;;;;;;5053390;28;20076;-80
2023/08/22 12:57:39;;;;;;;13.50;6.60;;;;;;;;;;5052120;28;20751;-80
2023/08/22 13:00:08;;;;;;;8.65;5.00;;;;;;;;;;5052815;28;20031;-80
2023/08/22 13:02:33;;;;;;;11.18;6.95;;;;;;;;;;5045363;28;20028;-81
2023/08/22 13:05:05;;;;;;;9.65;5.60;;;;;;;;;;5048260;28;20029;-83
2023/08/22 13:07:31;;;;;;;13.23;6.88;;;;;;;;;;5050073;28;20041;-81
2023/08/22 13:09:57;;;;;;;7.15;5.45;;;;;;;;;;5052421;28;20059;-80
2023/08/22 13:12:22;;;;;;;8.57;5.43;;;;;;;;;;5052675;28;20033;-82
2023/08/22 13:14:48;;;;;;;8.27;5.47;;;;;;;;;;5055004;28;20026;-81
2023/08/22 13:17:17;;;;;;;16.50;6.13;;;;;;;;;;5050558;28;20040;-81
2023/08/22 13:19:46;;;;;;;7.10;5.30;;;;;;;;;;5050347;28;20565;-84
2023/08/22 13:22:11;;;;;;;8.70;6.10;;;;;;;;;;5054756;28;20043;-84
2023/08/22 13:24:37;;;;;;;11.80;6.47;;;;;;;;;;5054263;28;20429;-86
2023/08/22 13:27:03;;;;;;;8.38;5.55;;;;;;;;;;5051863;28;20037;-84
2023/08/22 13:29:37;;;;;;;6.50;5.40;;;;;;;;;;5051407;28;20469;-83
2023/08/22 13:32:03;;;;;;;6.40;5.30;;;;;;;;;;5049854;28;20432;-83
2023/08/22 13:34:28;;;;;;;6.78;6.03;;;;;;;;;;5052308;28;20084;-81
2023/08/22 13:37:06;;;;;;;8.68;5.57;;;;;;;;;;5050695;28;20033;-82
2023/08/22 13:39:33;;;;;;;9.98;5.97;;;;;;;;;;5051600;28;20477;-83
2023/08/22 13:41:59;;;;;;;8.90;5.72;;;;;;;;;;5039486;28;20037;-82
2023/08/22 13:44:24;;;;;;;9.52;6.15;;;;;;;;;;5048716;28;20098;-82
2023/08/22 13:46:53;;;;;;;10.20;5.97;;;;;;;;;;5058036;28;20016;-83
2023/08/22 13:49:19;;;;;;;9.05;5.78;;;;;;;;;;5054439;28;20036;-83
2023/08/22 13:51:48;;;;;;;8.77;5.60;;;;;;;;;;5033781;28;20033;-83
2023/08/22 13:54:16;;;;;;;10.00;6.28;;;;;;;;;;5048786;28;20023;-82
2023/08/22 13:56:41;;;;;;;8.73;6.03;;;;;;;;;;5053056;28;20055;-83
2023/08/22 13:59:07;;;;;;;10.95;6.13;;;;;;;;;;5047908;28;20127;-82
2023/08/22 14:01:33;;;;;;;10.27;5.63;;;;;;;;;;5048379;28;20067;-81
2023/08/22 14:03:59;;;;;;;7.75;4.95;;;;;;;;;;5059849;28;20028;-82
2023/08/22 14:06:25;;;;;;;8.15;5.55;;;;;;;;;;5055647;28;20032;-82
2023/08/22 14:08:51;;;;;;;8.30;5.93;;;;;;;;;;5047116;28;20476;-82
2023/08/22 14:11:23;;;;;;;6.68;5.55;;;;;;;;;;5058317;28;20032;-85
2023/08/22 14:13:48;;;;;;;10.73;6.45;;;;;;;;;;5065794;28;20336;-76
2023/08/22 14:16:14;;;;;;;6.13;5.25;;;;;;;;;;5046197;28;20025;-78
2023/08/22 14:18:39;;;;;;;10.13;6.45;;;;;;;;;;5047012;28;20033;-78
2023/08/22 14:21:05;;;;;;;13.77;5.68;;;;;;;;;;5041118;28;20048;-79
2023/08/22 14:23:31;;;;;;;9.15;5.70;;;;;;;;;;5059871;28;20090;-78
2023/08/22 14:25:56;;;;;;;8.48;5.78;;;;;;;;;;5049436;28;20074;-78